Time,TemperatureF,DewpointF,PressureIn,WindDirection,WindDirectionDegrees,WindSpeedMPH,WindSpeedGustMPH,Humidity,HourlyPrecipIn,Conditions,Clouds,dailyrainin,SoftwareType,DateUTC
2013-02-16 00:02:00,61.6,59.0,29.97,NNE,23,4.0,6.0,91,0.00,,,0.00,weatherlink.com 1.10,2013-02-16 05:02:00,
2013-02-16 00:17:00,61.4,59.0,29.97,NNW,342,2.0,5.0,91,0.00,,,0.00,weatherlink.com 1.10,2013-02-16 05:17:00,
2013-02-16 00:32:00,61.3,58.0,29.98,NW,314,0.0,2.0,90,0.00,,,0.00,weatherlink.com 1.10,2013-02-16 05:32:00,
2013-02-16 00:47:00,61.2,58.0,29.98,WNW,299,0.0,1.0,90,0.00,,,0.00,weatherlink.com 1.10,2013-02-16 05:47:00,
2013-02-16 01:02:00,61.1,58.0,29.98,North,355,0.0,1.0,90,0.00,,,0.00,weatherlink.com 1.10,2013-02-16 06:02:00,
2013-02-16 01:18:00,60.9,58.0,29.97,NE,37,2.0,2.0,89,0.00,,,0.00,weatherlink.com 1.10,2013-02-16 06:18:00,
2013-02-16 01:33:00,60.8,57.0,29.96,North,11,1.0,2.0,88,0.00,,,0.00,weatherlink.com 1.10,2013-02-16 06:33:00,
2013-02-16 01:48:00,60.5,57.0,29.95,North,359,0.0,2.0,88,0.00,,,0.00,weatherlink.com 1.10,2013-02-16 06:48:00,
2013-02-16 02:03:00,60.3,57.0,29.95,NNW,346,1.0,2.0,88,0.00,,,0.00,weatherlink.com 1.10,2013-02-16 07:03:00,
2013-02-16 02:18:00,59.6,56.0,29.94,NW,323,1.0,1.0,89,0.00,,,0.00,weatherlink.com 1.10,2013-02-16 07:18:00,
2013-02-16 02:33:00,59.1,56.0,29.94,NW,311,0.0,3.0,90,0.00,,,0.00,weatherlink.com 1.10,2013-02-16 07:33:00,
2013-02-16 02:48:00,58.5,56.0,29.93,NW,311,0.0,0.0,90,0.00,,,0.00,weatherlink.com 1.10,2013-02-16 07:48:00,
2013-02-16 03:03:00,57.6,55.0,29.93,NW,311,0.0,0.0,91,0.00,,,0.00,weatherlink.com 1.10,2013-02-16 08:03:00,
2013-02-16 03:18:00,57.5,56.0,29.93,NW,311,0.0,1.0,93,0.00,,,0.00,weatherlink.com 1.10,2013-02-16 08:18:00,
2013-02-16 03:33:00,57.9,56.0,29.93,NNW,347,2.0,3.0,93,0.00,,,0.00,weatherlink.com 1.10,2013-02-16 08:33:00,
2013-02-16 03:48:00,57.9,56.0,29.93,North,349,4.0,5.0,93,0.00,,,0.00,weatherlink.com 1.10,2013-02-16 08:48:00,
2013-02-16 04:03:00,57.8,56.0,29.93,North,4,5.0,6.0,92,0.00,,,0.00,weatherlink.com 1.10,2013-02-16 09:03:00,
2013-02-16 04:18:00,58.0,56.0,29.93,North,356,5.0,7.0,92,0.00,,,0.00,weatherlink.com 1.10,2013-02-16 09:18:00,
2013-02-16 04:33:00,57.9,54.0,29.92,North,11,3.0,7.0,87,0.00,,,0.00,weatherlink.com 1.10,2013-02-16 09:33:00,
2013-02-16 04:48:00,57.6,54.0,29.93,NNW,337,2.0,5.0,86,0.00,,,0.00,weatherlink.com 1.10,2013-02-16 09:48:00,
2013-02-16 05:03:00,57.1,54.0,29.93,NNW,342,1.0,5.0,88,0.00,,,0.00,weatherlink.com 1.10,2013-02-16 10:03:00,
2013-02-16 05:18:00,56.8,53.0,29.93,NNW,340,2.0,5.0,87,0.00,,,0.00,weatherlink.com 1.10,2013-02-16 10:18:00,
2013-02-16 05:33:00,57.0,53.0,29.93,North,360,4.0,6.0,86,0.00,,,0.00,weatherlink.com 1.10,2013-02-16 10:33:00,
2013-02-16 05:48:00,57.3,53.0,29.93,North,349,2.0,6.0,84,0.00,,,0.00,weatherlink.com 1.10,2013-02-16 10:48:00,
2013-02-16 06:03:00,57.3,53.0,29.93,NNW,335,3.0,4.0,84,0.00,,,0.00,weatherlink.com 1.10,2013-02-16 11:03:00,
2013-02-16 06:18:00,57.3,53.0,29.94,NNW,337,0.0,4.0,84,0.00,,,0.00,weatherlink.com 1.10,2013-02-16 11:18:00,
2013-02-16 06:33:00,57.5,52.0,29.94,NNW,347,3.0,5.0,83,0.00,,,0.00,weatherlink.com 1.10,2013-02-16 11:33:00,
2013-02-16 06:48:00,57.7,53.0,29.95,NNW,346,2.0,5.0,83,0.00,,,0.00,weatherlink.com 1.10,2013-02-16 11:48:00,
2013-02-16 07:03:00,57.0,52.0,29.94,North,357,0.0,4.0,84,0.00,,,0.00,weatherlink.com 1.10,2013-02-16 12:03:00,
2013-02-16 07:18:00,56.3,52.0,29.95,NNW,337,0.0,2.0,86,0.00,,,0.00,weatherlink.com 1.10,2013-02-16 12:18:00,
2013-02-16 07:33:00,56.0,52.0,29.95,NNE,18,0.0,0.0,87,0.00,,,0.00,weatherlink.com 1.10,2013-02-16 12:33:00,
2013-02-16 07:48:00,56.3,53.0,29.95,NNW,347,1.0,2.0,87,0.00,,,0.00,weatherlink.com 1.10,2013-02-16 12:48:00,
2013-02-16 08:03:00,57.9,52.0,29.95,NNW,347,6.0,7.0,81,0.00,,,0.00,weatherlink.com 1.10,2013-02-16 13:03:00,
2013-02-16 08:18:00,59.2,52.0,29.96,NW,314,6.0,8.0,78,0.00,,,0.00,weatherlink.com 1.10,2013-02-16 13:18:00,
2013-02-16 08:33:00,60.0,52.0,29.96,NNW,336,7.0,13.0,76,0.00,,,0.00,weatherlink.com 1.10,2013-02-16 13:33:00,
2013-02-16 08:48:00,60.5,53.0,29.96,NW,319,7.0,12.0,76,0.00,,,0.00,weatherlink.com 1.10,2013-02-16 13:48:00,
2013-02-16 09:03:00,60.5,55.0,29.96,NW,308,8.0,12.0,81,0.00,,,0.00,weatherlink.com 1.10,2013-02-16 14:03:00,
2013-02-16 09:18:00,61.0,55.0,29.97,NW,312,7.0,12.0,81,0.00,,,0.00,weatherlink.com 1.10,2013-02-16 14:18:00,
2013-02-16 09:33:00,61.3,55.0,29.98,NW,312,7.0,12.0,81,0.00,,,0.00,weatherlink.com 1.10,2013-02-16 14:33:00,
2013-02-16 09:48:00,61.2,55.0,29.99,WNW,297,9.0,12.0,81,0.00,,,0.00,weatherlink.com 1.10,2013-02-16 14:48:00,
2013-02-16 10:03:00,62.2,56.0,29.99,NW,315,10.0,13.0,79,0.00,,,0.00,weatherlink.com 1.10,2013-02-16 15:03:00,
2013-02-16 10:18:00,62.1,56.0,29.99,NW,309,6.0,13.0,79,0.00,,,0.00,weatherlink.com 1.10,2013-02-16 15:18:00,
2013-02-16 10:33:00,62.6,55.0,30.00,NW,307,10.0,14.0,77,0.00,,,0.00,weatherlink.com 1.10,2013-02-16 15:33:00,
2013-02-16 10:48:00,62.4,55.0,30.00,NW,317,10.0,16.0,77,0.00,,,0.00,weatherlink.com 1.10,2013-02-16 15:48:00,
2013-02-16 11:04:00,63.4,53.0,30.01,NW,313,9.0,12.0,69,0.00,,,0.00,weatherlink.com 1.10,2013-02-16 16:04:00,
2013-02-16 11:19:00,64.4,53.0,30.00,NNW,338,11.0,15.0,67,0.00,,,0.00,weatherlink.com 1.10,2013-02-16 16:19:00,
2013-02-16 11:34:00,65.2,51.0,30.00,West,273,9.0,18.0,61,0.00,,,0.00,weatherlink.com 1.10,2013-02-16 16:34:00,
2013-02-16 11:49:00,65.1,53.0,30.01,WNW,291,12.0,19.0,65,0.00,,,0.00,weatherlink.com 1.10,2013-02-16 16:49:00,
2013-02-16 12:04:00,65.1,53.0,30.00,WNW,291,15.0,19.0,65,0.00,,,0.00,weatherlink.com 1.10,2013-02-16 17:04:00,
2013-02-16 12:19:00,65.5,54.0,30.00,WNW,297,9.0,20.0,66,0.00,,,0.00,weatherlink.com 1.10,2013-02-16 17:19:00,
2013-02-16 12:34:00,66.4,52.0,30.00,West,277,15.0,24.0,60,0.00,,,0.00,weatherlink.com 1.10,2013-02-16 17:34:00,
2013-02-16 12:49:00,66.0,52.0,30.00,WNW,284,13.0,23.0,60,0.00,,,0.00,weatherlink.com 1.10,2013-02-16 17:49:00,
2013-02-16 13:04:00,66.5,52.0,29.99,West,280,10.0,20.0,60,0.00,,,0.00,weatherlink.com 1.10,2013-02-16 18:04:00,
2013-02-16 13:19:00,67.3,53.0,29.98,West,273,11.0,19.0,60,0.00,,,0.00,weatherlink.com 1.10,2013-02-16 18:19:00,
2013-02-16 13:34:00,67.1,53.0,29.98,WNW,283,13.0,24.0,60,0.00,,,0.00,weatherlink.com 1.10,2013-02-16 18:34:00,
2013-02-16 13:49:00,67.2,52.0,29.97,West,273,14.0,23.0,59,0.00,,,0.00,weatherlink.com 1.10,2013-02-16 18:49:00,
2013-02-16 14:04:00,67.4,52.0,29.97,WNW,297,7.0,21.0,59,0.00,,,0.00,weatherlink.com 1.10,2013-02-16 19:04:00,
2013-02-16 14:19:00,66.8,53.0,29.96,NW,305,9.0,23.0,61,0.00,,,0.00,weatherlink.com 1.10,2013-02-16 19:19:00,
2013-02-16 14:34:00,66.9,52.0,29.96,WSW,252,10.0,22.0,60,0.00,,,0.00,weatherlink.com 1.10,2013-02-16 19:34:00,
2013-02-16 14:49:00,67.5,54.0,29.96,West,276,13.0,18.0,62,0.00,,,0.00,weatherlink.com 1.10,2013-02-16 19:49:00,
2013-02-16 15:04:00,68.2,54.0,29.96,West,280,14.0,20.0,60,0.00,,,0.00,weatherlink.com 1.10,2013-02-16 20:04:00,
2013-02-16 15:19:00,67.7,54.0,29.96,WNW,290,9.0,21.0,61,0.00,,,0.00,weatherlink.com 1.10,2013-02-16 20:19:00,
2013-02-16 15:34:00,64.9,54.0,29.97,NW,304,16.0,23.0,69,0.00,,,0.00,weatherlink.com 1.10,2013-02-16 20:34:00,
2013-02-16 15:49:00,62.9,55.0,29.98,NW,311,10.0,25.0,75,0.00,,,0.00,weatherlink.com 1.10,2013-02-16 20:49:00,
2013-02-16 16:04:00,62.3,55.0,29.98,NW,305,10.0,22.0,76,0.00,,,0.00,weatherlink.com 1.10,2013-02-16 21:04:00,
2013-02-16 16:19:00,62.7,55.0,29.98,WNW,297,13.0,20.0,76,0.00,,,0.00,weatherlink.com 1.10,2013-02-16 21:19:00,
2013-02-16 16:34:00,62.2,55.0,29.99,NW,313,10.0,21.0,77,0.00,,,0.00,weatherlink.com 1.10,2013-02-16 21:34:00,
2013-02-16 16:49:00,62.0,53.0,29.99,WNW,287,9.0,22.0,73,0.00,,,0.00,weatherlink.com 1.10,2013-02-16 21:49:00,
2013-02-16 17:04:00,62.4,53.0,29.99,NW,308,12.0,18.0,72,0.00,,,0.00,weatherlink.com 1.10,2013-02-16 22:04:00,
2013-02-16 17:19:00,62.3,50.0,30.00,WNW,295,12.0,26.0,64,0.00,,,0.00,weatherlink.com 1.10,2013-02-16 22:19:00,
2013-02-16 17:34:00,61.1,49.0,30.00,NW,315,13.0,21.0,65,0.00,,,0.00,weatherlink.com 1.10,2013-02-16 22:34:00,
2013-02-16 17:49:00,60.1,49.0,30.01,NW,317,18.0,25.0,66,0.00,,,0.00,weatherlink.com 1.10,2013-02-16 22:49:00,
2013-02-16 18:04:00,59.0,48.0,30.02,NW,308,12.0,21.0,68,0.00,,,0.00,weatherlink.com 1.10,2013-02-16 23:04:00,
2013-02-16 18:19:00,58.3,49.0,30.02,WNW,292,10.0,19.0,70,0.00,,,0.00,weatherlink.com 1.10,2013-02-16 23:19:00,
2013-02-16 18:34:00,58.0,49.0,30.03,WNW,296,7.0,18.0,72,0.00,,,0.00,weatherlink.com 1.10,2013-02-16 23:34:00,
2013-02-16 18:49:00,57.7,49.0,30.03,NW,312,7.0,15.0,73,0.00,,,0.00,weatherlink.com 1.10,2013-02-16 23:49:00,
2013-02-16 19:04:00,57.6,49.0,30.04,NW,321,9.0,15.0,73,0.00,,,0.00,weatherlink.com 1.10,2013-02-17 00:04:00,
2013-02-16 19:19:00,57.5,49.0,30.04,WNW,302,5.0,14.0,74,0.00,,,0.00,weatherlink.com 1.10,2013-02-17 00:19:00,
2013-02-16 19:34:00,57.8,50.0,30.05,NW,315,9.0,15.0,74,0.00,,,0.00,weatherlink.com 1.10,2013-02-17 00:34:00,
2013-02-16 19:49:00,57.9,50.0,30.05,WNW,299,8.0,15.0,74,0.00,,,0.00,weatherlink.com 1.10,2013-02-17 00:49:00,
2013-02-16 20:04:00,57.4,49.0,30.05,NW,319,10.0,15.0,74,0.00,,,0.00,weatherlink.com 1.10,2013-02-17 01:04:00,
2013-02-16 20:19:00,57.2,49.0,30.06,NW,309,9.0,15.0,75,0.00,,,0.00,weatherlink.com 1.10,2013-02-17 01:19:00,
2013-02-16 20:34:00,57.4,49.0,30.07,WNW,298,9.0,16.0,73,0.00,,,0.00,weatherlink.com 1.10,2013-02-17 01:34:00,
2013-02-16 20:49:00,57.0,49.0,30.07,WNW,302,6.0,10.0,75,0.00,,,0.00,weatherlink.com 1.10,2013-02-17 01:49:00,
2013-02-16 21:04:00,57.5,49.0,30.07,NW,323,4.0,11.0,74,0.00,,,0.00,weatherlink.com 1.10,2013-02-17 02:04:00,
2013-02-16 21:19:00,57.5,49.0,30.09,WNW,290,10.0,12.0,73,0.00,,,0.00,weatherlink.com 1.10,2013-02-17 02:19:00,
2013-02-16 21:34:00,58.0,47.0,30.09,NW,323,10.0,15.0,67,0.00,,,0.00,weatherlink.com 1.10,2013-02-17 02:34:00,
2013-02-16 21:49:00,58.3,45.0,30.09,NNW,332,13.0,16.0,62,0.00,,,0.00,weatherlink.com 1.10,2013-02-17 02:49:00,
2013-02-16 22:05:00,58.3,45.0,30.10,NW,307,10.0,17.0,61,0.00,,,0.00,weatherlink.com 1.10,2013-02-17 03:05:00,
2013-02-16 22:20:00,58.4,45.0,30.10,NW,311,12.0,16.0,61,0.00,,,0.00,weatherlink.com 1.10,2013-02-17 03:20:00,
2013-02-16 22:35:00,58.2,44.0,30.10,WNW,299,18.0,22.0,59,0.00,,,0.00,weatherlink.com 1.10,2013-02-17 03:35:00,
2013-02-16 22:50:00,58.1,44.0,30.10,WNW,295,9.0,21.0,59,0.00,,,0.00,weatherlink.com 1.10,2013-02-17 03:50:00,
2013-02-16 23:05:00,58.2,42.0,30.10,WNW,302,13.0,25.0,56,0.00,,,0.00,weatherlink.com 1.10,2013-02-17 04:05:00,
2013-02-16 23:20:00,58.0,42.0,30.10,WNW,284,12.0,20.0,55,0.00,,,0.00,weatherlink.com 1.10,2013-02-17 04:20:00,
2013-02-16 23:35:00,58.1,43.0,30.11,NW,314,8.0,23.0,58,0.00,,,0.00,weatherlink.com 1.10,2013-02-17 04:35:00,
2013-02-16 23:50:00,57.8,41.0,30.10,WNW,301,10.0,20.0,54,0.00,,,0.00,weatherlink.com 1.10,2013-02-17 04:50:00,